»·PEaware :: N259DS KSNA-KAVX

N259DS :: KSNA-KAVX

FLIGHT INFORMATION

Flight Status: Arrived
Operator: Privately registered:
United States
More flights under this callsign
Pilot: Pratham R. (19019)
Aircraft: SOCATA TBM-900
(TBM9)
More flights by this aircraft type
Origin: KSNA John Wayne-Orange Co
United States
Destination: KAVX Catalina
United States
More flights between these airports :: More routes between these airports
Route: +SLI V21 SXC
File this flight plan on PilotEdge
Remarks: I-7 Rating
Altitude:
(Current/Filed)
4,000ft
Speed:
(Current/Filed)
180kts
Departed: 22-Jul-19 05:57 PM
Arrived: 22-Jul-19 06:18 PM
Distance/Time
Traveled:
32nm/0:21
Distance/Time
To Go:
Arrived

Flight Plot

Page will automatically refresh every two minutes.


Map Options




Map Legend


Flown Route
Filed Route
Departure Airport
Arrival Airport
Navaid (VOR, NDB)
Fix

Horizontal Profiles

Position Reports

Time Latitude Longitude Heading Altitude Ground
Speed
22-Jul-19 17:39 33.675629 -117.870940 131 59ft 0kts
22-Jul-19 17:40 33.675629 -117.870940 131 59ft 0kts
22-Jul-19 17:41 33.675629 -117.870940 131 59ft 0kts
22-Jul-19 17:42 33.675629 -117.870940 131 59ft 0kts
22-Jul-19 17:43 33.675629 -117.870940 131 59ft 0kts
22-Jul-19 17:44 33.675629 -117.870940 131 59ft 0kts
22-Jul-19 17:45 33.675629 -117.870940 131 59ft 0kts
22-Jul-19 17:46 33.675579 -117.870872 131 59ft 2kts
22-Jul-19 17:47 33.676908 -117.869546 26 59ft 12kts
22-Jul-19 17:48 33.679744 -117.867895 16 59ft 0kts
22-Jul-19 17:49 33.679827 -117.867866 16 59ft 0kts
22-Jul-19 17:50 33.680385 -117.867546 28 59ft 12kts
22-Jul-19 17:51 33.681264 -117.866494 129 59ft 1kts
22-Jul-19 17:52 33.681229 -117.866445 131 59ft 0kts
22-Jul-19 17:53 33.681229 -117.866444 131 59ft 0kts
22-Jul-19 17:54 33.681229 -117.866444 131 59ft 0kts
22-Jul-19 17:55 33.681137 -117.866233 101 59ft 3kts
22-Jul-19 17:56 33.679323 -117.866507 206 59ft 48kts
22-Jul-19 17:57 33.657431 -117.886085 232 2002ft 120kts
22-Jul-19 17:58 33.632045 -117.930071 238 2025ft 179kts
22-Jul-19 17:59 33.607183 -117.983362 238 3704ft 188kts
22-Jul-19 18:00 33.579807 -118.042194 238 4007ft 209kts
22-Jul-19 18:01 33.550940 -118.104143 238 4004ft 213kts
22-Jul-19 18:02 33.521956 -118.166205 239 4005ft 211kts
22-Jul-19 18:03 33.493119 -118.227901 241 4021ft 211kts
22-Jul-19 18:04 33.464076 -118.289966 241 4040ft 217kts
22-Jul-19 18:05 33.434022 -118.354020 241 4055ft 220kts
22-Jul-19 18:06 33.404614 -118.417890 254 3974ft 208kts
22-Jul-19 18:07 33.440729 -118.431626 39 4013ft 190kts
22-Jul-19 18:08 33.488208 -118.405754 5 3451ft 193kts
22-Jul-19 18:09 33.537018 -118.409171 329 3374ft 166kts
22-Jul-19 18:10 33.574712 -118.446053 319 3391ft 190kts
22-Jul-19 18:11 33.620106 -118.467994 43 3372ft 203kts
22-Jul-19 18:12 33.603154 -118.406912 136 3357ft 216kts
22-Jul-19 18:13 33.546087 -118.400859 184 2734ft 202kts
22-Jul-19 18:14 33.491005 -118.405181 183 2081ft 187kts
22-Jul-19 18:15 33.440783 -118.410268 186 2258ft 166kts
22-Jul-19 18:16 33.408193 -118.410497 230 1571ft 96kts
22-Jul-19 18:17 33.403888 -118.417062 130 1554ft 2kts
22-Jul-19 18:18 33.403284 -118.415894 126 1550ft 3kts
22-Jul-19 18:19 33.403314 -118.415705 321 1549ft 0kts
22-Jul-19 18:20 33.403314 -118.415705 321 1549ft 0kts
22-Jul-19 18:21 33.403314 -118.415705 321 1549ft 0kts
22-Jul-19 18:22 33.403174 -118.415572 318 1549ft 0kts
22-Jul-19 18:23 33.403166 -118.415563 318 1549ft 0kts
22-Jul-19 18:24 33.403166 -118.415563 318 1549ft 0kts
22-Jul-19 18:25 33.403166 -118.415563 318 1549ft 0kts
22-Jul-19 18:26 33.403166 -118.415563 318 1549ft 0kts
22-Jul-19 18:27 33.403166 -118.415563 318 1549ft 0kts
22-Jul-19 18:28 33.403166 -118.415563 318 1549ft 0kts
22-Jul-19 18:29 33.403166 -118.415563 318 1549ft 0kts
22-Jul-19 18:30 33.403166 -118.415563 318 1549ft 0kts
22-Jul-19 18:31 33.403166 -118.415563 318 1549ft 0kts

Navigation Log

Ident Type
Flight plan parsing failed, navigation log unavailable